Time;durP1;ratioP1;P1;durP2;ratioP2;P2;SDS_P1;SDS_P2;PMS_P1;PMS_P2;Temp;Humidity;BMP_temperature;BMP_pressure;BME280_temperature;BME280_humidity;BME280_pressure;Samples;Min_cycle;Max_cycle;Signal;HPM_P1;HPM_P2
2023/08/21 00:00:06;;;;;;;17.83;4.82;;;;;;;28.27;33.95;100551.50;5030964;28;20069;-80
2023/08/21 00:02:31;;;;;;;12.40;5.32;;;;;;;28.28;34.11;100558.72;5031296;28;20977;-80
2023/08/21 00:04:57;;;;;;;21.27;4.63;;;;;;;28.25;34.19;100564.75;5031438;28;20029;-80
2023/08/21 00:07:22;;;;;;;15.43;5.40;;;;;;;28.19;34.57;100562.09;5031649;28;20124;-80
2023/08/21 00:09:48;;;;;;;19.70;4.88;;;;;;;28.13;34.83;100571.38;4996378;28;21003;-80
2023/08/21 00:12:13;;;;;;;19.65;5.10;;;;;;;28.07;35.15;100571.22;5031580;28;20063;-81
2023/08/21 00:14:39;;;;;;;16.48;5.82;;;;;;;28.03;35.26;100572.78;5031455;28;20029;-79
2023/08/21 00:17:05;;;;;;;24.58;5.75;;;;;;;28.00;35.09;100567.72;5031155;28;20028;-79
2023/08/21 00:19:30;;;;;;;18.05;5.40;;;;;;;27.95;35.64;100567.59;5030979;28;20033;-79
2023/08/21 00:21:56;;;;;;;32.83;5.28;;;;;;;27.90;35.30;100573.00;5031220;28;20017;-79
2023/08/21 00:24:21;;;;;;;21.20;6.03;;;;;;;27.81;35.91;100562.53;5031056;28;20068;-80
2023/08/21 00:26:46;;;;;;;17.42;6.05;;;;;;;27.74;36.06;100568.16;5008541;28;20038;-80
2023/08/21 00:29:12;;;;;;;28.30;6.25;;;;;;;27.73;36.80;100572.03;5008679;28;20057;-79
2023/08/21 00:31:37;;;;;;;18.50;5.22;;;;;;;27.58;36.93;100562.50;5008617;28;20053;-81
2023/08/21 00:34:03;;;;;;;27.02;5.63;;;;;;;27.61;36.81;100575.84;5008949;28;20030;-80
2023/08/21 00:36:28;;;;;;;39.35;6.28;;;;;;;27.52;36.95;100569.81;5008475;28;20038;-80
2023/08/21 00:38:54;;;;;;;31.17;7.63;;;;;;;27.49;37.08;100575.81;5008462;28;20045;-80
2023/08/21 00:41:19;;;;;;;24.08;6.40;;;;;;;27.41;36.95;100573.34;5008249;28;20049;-79
2023/08/21 00:43:45;;;;;;;26.98;7.10;;;;;;;27.41;37.14;100578.88;5008383;28;20034;-81
2023/08/21 00:46:10;;;;;;;26.27;8.20;;;;;;;27.34;37.11;100573.44;5007915;28;20046;-81
2023/08/21 00:48:36;;;;;;;34.60;9.52;;;;;;;27.30;37.36;100572.25;5024074;28;20119;-82
2023/08/21 00:51:03;;;;;;;34.85;7.93;;;;;;;27.19;37.15;100561.13;5027898;28;20037;-83
2023/08/21 00:53:29;;;;;;;30.38;8.57;;;;;;;27.22;36.98;100564.28;5021683;28;20107;-82
2023/08/21 00:55:55;;;;;;;33.17;7.57;;;;;;;27.24;36.97;100577.88;5008392;28;20034;-81
2023/08/21 00:58:20;;;;;;;19.42;6.32;;;;;;;27.13;36.83;100556.56;5030701;28;20116;-82
2023/08/21 01:00:49;;;;;;;20.83;6.05;;;;;;;27.18;36.16;100563.09;5049872;28;20477;-81
2023/08/21 01:03:15;;;;;;;16.10;5.00;;;;;;;27.16;35.71;100559.69;5050243;28;20013;-81
2023/08/21 01:05:41;;;;;;;21.75;5.50;;;;;;;27.18;35.80;100567.75;5046254;28;20029;-81
2023/08/21 01:08:17;;;;;;;19.45;4.70;;;;;;;27.21;35.84;100567.28;5049670;28;20025;-80
2023/08/21 01:10:58;;;;;;;16.65;4.68;;;;;;;27.27;35.60;100572.72;5049258;28;20033;-81
2023/08/21 01:13:28;;;;;;;18.05;4.50;;;;;;;27.31;35.52;100567.53;5050125;28;20422;-81
2023/08/21 01:15:55;;;;;;;20.42;4.25;;;;;;;27.38;35.47;100571.91;5053422;28;20037;-81
2023/08/21 01:18:22;;;;;;;15.43;4.30;;;;;;;27.41;35.42;100563.16;5050197;28;20025;-82
2023/08/21 01:20:48;;;;;;;20.27;5.25;;;;;;;27.49;35.21;100564.78;5051027;28;20041;-81
2023/08/21 01:23:35;;;;;;;18.23;5.70;;;;;;;27.53;35.20;100563.19;5050121;28;20122;-80
2023/08/21 01:26:01;;;;;;;13.80;4.40;;;;;;;27.49;35.48;100550.97;5049897;28;20025;-81
2023/08/21 01:28:27;;;;;;;13.48;4.95;;;;;;;27.58;35.22;100558.66;5048042;28;20032;-80
2023/08/21 01:31:03;;;;;;;19.13;4.75;;;;;;;27.51;35.54;100548.78;5030255;28;20044;-80
2023/08/21 01:33:33;;;;;;;22.48;3.83;;;;;;;27.68;34.99;100566.34;5030010;28;20025;-80
2023/08/21 01:36:03;;;;;;;11.43;4.13;;;;;;;27.68;35.17;100558.06;5034465;28;20030;-81
2023/08/21 01:38:31;;;;;;;15.18;4.35;;;;;;;27.79;35.07;100576.59;5049289;28;20074;-80
2023/08/21 01:40:57;;;;;;;15.15;4.70;;;;;;;27.79;34.62;100565.53;5052907;28;20052;-80
2023/08/21 01:43:22;;;;;;;19.85;4.80;;;;;;;27.86;34.94;100566.25;5060568;28;20112;-79
2023/08/21 01:45:47;;;;;;;12.30;4.82;;;;;;;27.81;34.97;100557.84;5066973;28;20049;-82
2023/08/21 01:48:13;;;;;;;11.27;4.00;;;;;;;27.89;34.67;100570.44;5072365;28;20024;-81
2023/08/21 01:50:38;;;;;;;10.70;4.28;;;;;;;27.84;34.86;100554.59;5057084;28;20025;-80
2023/08/21 01:53:04;;;;;;;11.88;4.75;;;;;;;27.92;34.55;100565.28;5053971;28;20036;-80
2023/08/21 01:55:29;;;;;;;16.25;4.10;;;;;;;27.94;34.39;100573.38;5054107;28;20021;-79
2023/08/21 01:57:54;;;;;;;12.43;3.63;;;;;;;27.91;34.50;100563.63;5053613;28;20025;-80
2023/08/21 02:00:20;;;;;;;21.95;4.35;;;;;;;27.91;34.25;100568.31;5051405;28;20040;-80
2023/08/21 02:02:45;;;;;;;12.43;4.28;;;;;;;27.90;34.40;100567.47;5050183;28;20036;-80
2023/08/21 02:05:11;;;;;;;9.55;3.80;;;;;;;27.85;34.81;100550.78;5049980;28;20017;-80
2023/08/21 02:07:36;;;;;;;9.02;4.28;;;;;;;27.85;34.78;100564.59;5050058;28;20052;-80
2023/08/21 02:10:02;;;;;;;14.57;4.03;;;;;;;27.86;34.83;100560.72;5049491;28;20052;-79
2023/08/21 02:12:27;;;;;;;10.05;4.28;;;;;;;27.92;34.63;100568.06;5049342;28;20487;-80
2023/08/21 02:14:52;;;;;;;9.55;3.67;;;;;;;27.93;34.52;100567.00;5049775;28;20104;-80
2023/08/21 02:17:18;;;;;;;6.65;3.97;;;;;;;27.99;34.47;100565.19;5049621;28;20052;-80
2023/08/21 02:19:43;;;;;;;14.57;4.32;;;;;;;28.01;34.31;100563.84;5049459;28;20478;-80
2023/08/21 02:22:09;;;;;;;11.65;4.47;;;;;;;28.02;34.39;100554.47;5048398;28;20035;-81
2023/08/21 02:24:34;;;;;;;11.48;5.05;;;;;;;28.03;34.53;100560.88;5049001;28;20039;-80
2023/08/21 02:26:59;;;;;;;23.48;5.10;;;;;;;28.03;34.72;100552.56;5048685;28;20025;-81
2023/08/21 02:29:25;;;;;;;15.35;4.82;;;;;;;28.05;34.67;100558.72;5048823;28;20036;-81
2023/08/21 02:31:50;;;;;;;15.00;4.35;;;;;;;28.08;34.98;100559.09;5048924;28;20040;-80
2023/08/21 02:34:16;;;;;;;12.85;4.57;;;;;;;28.05;35.04;100554.03;5048895;28;20021;-80
2023/08/21 02:36:41;;;;;;;11.23;4.03;;;;;;;28.13;35.12;100552.84;5048165;28;20534;-80
2023/08/21 02:39:07;;;;;;;13.95;4.75;;;;;;;28.12;34.99;100547.53;5048520;28;20451;-80
2023/08/21 02:41:32;;;;;;;9.07;4.20;;;;;;;28.18;35.61;100552.09;5048560;28;20512;-81
2023/08/21 02:43:57;;;;;;;10.55;4.72;;;;;;;28.18;35.21;100547.41;5048288;28;20025;-80
2023/08/21 02:46:23;;;;;;;12.63;4.30;;;;;;;28.16;35.62;100565.34;5040663;28;20061;-82
2023/08/21 02:48:48;;;;;;;14.02;5.30;;;;;;;28.10;35.93;100562.44;5048759;28;20021;-80
2023/08/21 02:51:14;;;;;;;11.35;4.65;;;;;;;28.05;35.67;100553.19;5048224;28;20025;-80
2023/08/21 02:53:39;;;;;;;15.57;4.53;;;;;;;27.98;36.27;100567.09;5048660;28;20032;-80
2023/08/21 02:56:05;;;;;;;7.30;4.38;;;;;;;27.98;36.24;100560.75;5048587;28;20378;-79
2023/08/21 02:58:30;;;;;;;13.48;4.60;;;;;;;27.91;36.10;100569.16;5048887;28;20029;-82
2023/08/21 03:00:55;;;;;;;19.50;4.97;;;;;;;27.89;36.49;100575.97;5048141;28;20044;-82
2023/08/21 03:03:21;;;;;;;8.38;4.32;;;;;;;27.84;36.87;100573.09;5048730;28;20021;-82
2023/08/21 03:05:46;;;;;;;12.80;4.93;;;;;;;27.72;37.22;100573.09;5048355;28;20163;-81
2023/08/21 03:08:12;;;;;;;19.13;5.78;;;;;;;27.66;37.56;100578.72;5048260;28;20036;-82
2023/08/21 03:10:37;;;;;;;32.45;5.65;;;;;;;27.56;37.92;100566.34;5048186;28;20115;-82
2023/08/21 03:13:03;;;;;;;22.30;4.93;;;;;;;27.45;38.21;100574.59;5048286;28;20029;-82
2023/08/21 03:15:28;;;;;;;8.98;4.43;;;;;;;27.38;38.97;100571.06;5048412;28;20036;-81
2023/08/21 03:17:54;;;;;;;10.02;4.88;;;;;;;27.31;39.37;100570.31;5048702;28;20033;-81
2023/08/21 03:20:20;;;;;;;18.55;5.47;;;;;;;27.26;39.39;100578.47;5048720;28;20094;-81
2023/08/21 03:22:46;;;;;;;12.82;4.95;;;;;;;27.22;39.73;100591.06;5046826;28;20020;-81
2023/08/21 03:25:12;;;;;;;14.23;5.15;;;;;;;27.13;40.04;100573.13;5047939;28;20045;-81
2023/08/21 03:27:44;;;;;;;12.57;6.20;;;;;;;27.14;40.42;100585.88;5047984;28;20017;-81
2023/08/21 03:30:10;;;;;;;17.80;6.10;;;;;;;27.10;40.70;100588.25;5048291;28;20033;-81
2023/08/21 03:32:35;;;;;;;19.17;5.25;;;;;;;27.06;40.87;100584.28;5048108;28;20079;-81
2023/08/21 03:35:01;;;;;;;14.13;5.90;;;;;;;27.04;40.88;100590.03;5051244;28;20029;-81
2023/08/21 03:37:26;;;;;;;20.13;6.25;;;;;;;27.06;41.45;100598.09;5051967;28;20025;-81
2023/08/21 03:39:52;;;;;;;25.20;7.45;;;;;;;27.09;41.68;100596.78;5051389;28;20041;-81
2023/08/21 03:42:17;;;;;;;20.65;6.13;;;;;;;27.07;41.68;100593.38;5033954;28;20029;-81
2023/08/21 03:44:43;;;;;;;17.77;5.93;;;;;;;26.98;42.23;100585.44;5051871;28;20041;-81
2023/08/21 03:47:08;;;;;;;16.75;5.28;;;;;;;27.02;42.40;100594.94;5051689;28;20448;-81
2023/08/21 03:49:33;;;;;;;16.52;6.07;;;;;;;26.96;42.49;100593.13;5051564;28;20075;-80
2023/08/21 03:51:59;;;;;;;16.25;5.68;;;;;;;26.88;42.69;100593.44;5051644;28;20087;-78
2023/08/21 03:54:24;;;;;;;14.98;6.90;;;;;;;26.86;42.78;100590.06;5051744;28;20025;-80
2023/08/21 03:56:50;;;;;;;17.00;5.93;;;;;;;26.86;43.25;100590.06;5051368;28;20028;-80
2023/08/21 03:59:15;;;;;;;13.55;5.88;;;;;;;26.85;43.38;100596.66;5051897;28;20031;-79
2023/08/21 04:01:41;;;;;;;20.20;6.25;;;;;;;26.83;43.88;100604.31;5050967;28;20106;-79
2023/08/21 04:04:06;;;;;;;34.67;7.50;;;;;;;26.79;43.85;100597.53;5051689;28;20027;-80
2023/08/21 04:06:31;;;;;;;31.92;8.13;;;;;;;26.81;44.11;100600.97;5051495;28;20104;-79
2023/08/21 04:08:57;;;;;;;22.58;6.20;;;;;;;26.78;44.03;100593.13;5053271;28;20032;-80
2023/08/21 04:11:22;;;;;;;17.48;6.40;;;;;;;26.80;44.12;100599.28;5052118;28;20382;-81
2023/08/21 04:13:48;;;;;;;23.25;5.82;;;;;;;26.82;44.41;100605.38;5051876;28;20495;-83
2023/08/21 04:16:14;;;;;;;15.60;7.40;;;;;;;26.84;44.48;100614.31;5051539;28;20524;-78
2023/08/21 04:18:40;;;;;;;11.95;6.18;;;;;;;26.82;44.05;100613.66;5050719;28;20025;-82
2023/08/21 04:21:06;;;;;;;19.10;5.35;;;;;;;26.88;44.21;100615.50;5049744;28;20124;-79
2023/08/21 04:23:31;;;;;;;15.27;6.53;;;;;;;26.87;43.99;100600.03;5043904;28;20029;-78
2023/08/21 04:26:02;;;;;;;17.27;6.90;;;;;;;27.00;43.90;100610.88;5039851;28;20052;-79
2023/08/21 04:28:27;;;;;;;17.38;7.10;;;;;;;27.00;43.84;100604.56;5051258;28;20033;-79
2023/08/21 04:30:52;;;;;;;16.58;7.38;;;;;;;27.09;43.51;100602.31;5050767;28;20424;-77
2023/08/21 04:33:18;;;;;;;18.70;5.50;;;;;;;27.22;43.05;100619.50;5052069;28;20033;-80
2023/08/21 04:35:43;;;;;;;22.92;6.72;;;;;;;27.29;42.70;100602.84;5054867;28;20533;-78
2023/08/21 04:38:09;;;;;;;13.52;5.47;;;;;;;27.40;42.99;100607.59;5051882;28;20029;-78
2023/08/21 04:40:34;;;;;;;17.45;4.97;;;;;;;27.44;42.81;100617.13;5051502;28;20032;-79
2023/08/21 04:42:59;;;;;;;14.10;5.82;;;;;;;27.52;42.74;100612.09;5033557;28;20021;-80
2023/08/21 04:45:25;;;;;;;25.77;6.35;;;;;;;27.61;42.32;100612.63;5050949;28;20160;-78
2023/08/21 04:47:50;;;;;;;24.52;6.20;;;;;;;27.64;42.55;100603.00;5051386;28;20051;-79
2023/08/21 04:50:16;;;;;;;20.02;6.32;;;;;;;27.70;42.16;100610.34;5046526;28;20394;-78
2023/08/21 04:52:41;;;;;;;32.13;6.68;;;;;;;27.75;42.28;100614.09;5050337;28;20123;-80
2023/08/21 04:55:07;;;;;;;13.50;5.20;;;;;;;27.83;42.21;100605.44;5050338;28;20037;-84
2023/08/21 04:57:33;;;;;;;24.67;6.35;;;;;;;27.90;41.88;100611.69;5049237;28;20210;-81
2023/08/21 04:59:58;;;;;;;28.48;5.78;;;;;;;27.99;41.60;100610.28;5031662;28;20021;-80
2023/08/21 05:02:24;;;;;;;18.00;5.85;;;;;;;28.05;41.59;100602.97;5014356;28;20044;-80
2023/08/21 05:04:49;;;;;;;10.95;6.00;;;;;;;28.12;41.54;100613.91;5049986;28;20115;-81
2023/08/21 05:07:15;;;;;;;34.47;8.32;;;;;;;28.20;41.67;100614.41;5049808;28;20443;-82
2023/08/21 05:09:41;;;;;;;29.15;7.00;;;;;;;28.29;41.32;100614.88;5032068;28;20448;-83
2023/08/21 05:12:07;;;;;;;20.15;6.00;;;;;;;28.37;40.94;100614.53;5049712;28;20029;-81
2023/08/21 05:14:33;;;;;;;13.70;5.57;;;;;;;28.44;40.84;100602.22;5050631;28;20029;-82
2023/08/21 05:16:58;;;;;;;29.48;7.10;;;;;;;28.52;40.75;100603.81;5049433;28;20029;-81
2023/08/21 05:19:24;;;;;;;16.73;5.68;;;;;;;28.55;40.34;100603.31;5049232;28;20021;-80
2023/08/21 05:21:50;;;;;;;24.25;6.28;;;;;;;28.73;39.91;100622.56;5049776;28;20109;-76
2023/08/21 05:24:16;;;;;;;25.20;6.15;;;;;;;28.83;39.81;100622.81;5042357;28;20104;-80
2023/08/21 05:26:41;;;;;;;23.42;7.03;;;;;;;28.95;39.58;100622.75;5029891;28;20032;-78
2023/08/21 05:29:07;;;;;;;29.75;6.90;;;;;;;28.99;39.48;100613.69;5029867;28;20061;-79
2023/08/21 05:31:33;;;;;;;15.93;6.43;;;;;;;29.07;39.51;100627.19;5034448;28;20060;-80
2023/08/21 05:33:58;;;;;;;22.90;6.10;;;;;;;29.12;39.36;100605.13;5031830;28;20485;-79
2023/08/21 05:36:24;;;;;;;26.98;5.75;;;;;;;29.27;39.24;100620.38;5049151;28;20028;-80
2023/08/21 05:38:51;;;;;;;24.15;6.65;;;;;;;29.38;39.53;100628.66;5049668;28;20029;-79
2023/08/21 05:41:16;;;;;;;28.55;8.10;;;;;;;29.45;40.04;100626.56;5048949;28;20025;-80
2023/08/21 05:43:42;;;;;;;38.08;9.45;;;;;;;29.56;40.12;100638.69;5031817;28;20028;-80
2023/08/21 05:46:08;;;;;;;44.95;12.32;;;;;;;29.56;40.79;100627.59;5049990;28;20053;-81
2023/08/21 05:48:34;;;;;;;22.10;7.55;;;;;;;29.59;40.71;100632.66;5049382;28;20036;-79
2023/08/21 05:51:00;;;;;;;23.80;8.48;;;;;;;29.65;40.89;100639.97;5048155;28;20040;-80
2023/08/21 05:53:25;;;;;;;22.35;7.03;;;;;;;29.69;40.95;100630.06;5051774;28;20694;-76
2023/08/21 05:55:52;;;;;;;36.05;8.48;;;;;;;29.70;40.88;100635.34;5048924;28;20032;-82
2023/08/21 05:58:17;;;;;;;29.83;7.35;;;;;;;29.71;41.02;100633.44;5053579;28;20033;-80
2023/08/21 06:00:44;;;;;;;26.77;7.07;;;;;;;29.81;39.90;100632.78;5049817;28;20036;-81
2023/08/21 06:03:09;;;;;;;17.02;6.97;;;;;;;29.85;39.42;100629.25;5050169;28;20036;-82
2023/08/21 06:05:35;;;;;;;26.40;7.40;;;;;;;29.91;39.96;100639.34;4999164;28;20033;-83
2023/08/21 06:08:01;;;;;;;27.77;8.20;;;;;;;29.99;40.28;100638.94;5048648;28;20068;-77
2023/08/21 06:10:26;;;;;;;34.30;8.55;;;;;;;30.05;40.33;100643.50;5049165;28;20560;-77
2023/08/21 06:12:51;;;;;;;61.03;15.00;;;;;;;30.03;40.38;100640.09;5050262;28;20060;-79
2023/08/21 06:15:17;;;;;;;38.75;9.65;;;;;;;30.11;40.58;100653.56;5049857;28;20518;-79
2023/08/21 06:17:42;;;;;;;26.95;7.65;;;;;;;30.10;40.48;100640.78;5049007;28;20079;-84
2023/08/21 06:20:13;;;;;;;29.25;8.10;;;;;;;30.18;40.31;100643.13;5049037;28;20403;-80
2023/08/21 06:22:39;;;;;;;32.95;8.45;;;;;;;30.22;40.33;100644.31;5049777;28;20056;-80
2023/08/21 06:25:05;;;;;;;26.60;7.63;;;;;;;30.26;39.99;100650.19;5048402;28;20622;-81
2023/08/21 06:27:31;;;;;;;42.50;8.98;;;;;;;30.31;40.35;100646.66;5051366;28;20033;-82
2023/08/21 06:29:56;;;;;;;29.35;8.55;;;;;;;30.36;40.19;100655.91;5042000;28;20040;-80
2023/08/21 06:32:22;;;;;;;22.13;8.05;;;;;;;30.38;39.74;100663.97;5072723;28;20028;-80
2023/08/21 06:34:47;;;;;;;30.50;8.95;;;;;;;30.43;39.58;100667.69;5073259;28;20036;-82
2023/08/21 06:37:13;;;;;;;51.58;16.08;;;;;;;30.51;39.57;100664.50;5066369;28;20032;-85
2023/08/21 06:39:38;;;;;;;42.67;14.00;;;;;;;30.51;39.52;100655.34;5057474;28;20025;-82
2023/08/21 06:42:04;;;;;;;44.20;12.60;;;;;;;30.54;39.01;100652.06;5056385;28;20394;-83
2023/08/21 06:44:29;;;;;;;34.60;9.57;;;;;;;30.77;39.16;100668.47;5052492;28;20041;-80
2023/08/21 06:46:55;;;;;;;19.75;6.75;;;;;;;30.78;38.89;100659.06;5049393;28;20055;-83
2023/08/21 06:49:20;;;;;;;15.73;7.93;;;;;;;30.91;38.81;100658.69;5046708;28;20283;-87
2023/08/21 06:51:45;;;;;;;18.52;7.40;;;;;;;31.00;38.55;100650.78;5047811;28;20462;-89
2023/08/21 06:54:11;;;;;;;15.57;7.40;;;;;;;30.91;38.46;100628.13;5049474;28;20048;-86
2023/08/21 06:56:36;;;;;;;20.77;6.45;;;;;;;31.10;38.08;100645.34;5049269;28;20029;-81
2023/08/21 06:59:02;;;;;;;46.17;6.82;;;;;;;31.33;37.40;100669.25;5041906;28;20128;-82
2023/08/21 07:01:28;;;;;;;34.85;7.95;;;;;;;31.37;37.16;100657.34;5042054;28;20037;-77
2023/08/21 07:03:54;;;;;;;18.52;7.40;;;;;;;31.45;37.22;100661.59;5029034;28;20029;-83
2023/08/21 07:06:19;;;;;;;20.13;7.25;;;;;;;31.61;36.56;100667.09;5047091;28;20554;-81
2023/08/21 07:08:45;;;;;;;27.67;6.60;;;;;;;31.72;36.65;100668.88;5031816;28;20029;-81
2023/08/21 07:11:12;;;;;;;18.10;6.28;;;;;;;31.84;36.68;100668.69;5057594;28;20043;-83
2023/08/21 07:13:38;;;;;;;23.05;5.60;;;;;;;31.96;36.26;100662.97;5057645;28;20037;-83
2023/08/21 07:16:05;;;;;;;30.95;7.35;;;;;;;32.05;36.70;100653.91;5052832;28;20024;-84
2023/08/21 07:18:32;;;;;;;28.75;7.25;;;;;;;32.29;35.79;100665.53;5053014;28;20098;-84
2023/08/21 07:20:58;;;;;;;27.17;5.68;;;;;;;32.43;35.54;100663.97;5052727;28;20036;-84
2023/08/21 07:23:24;;;;;;;13.88;5.30;;;;;;;32.54;35.29;100662.06;5053837;28;20033;-82
2023/08/21 07:25:49;;;;;;;24.52;6.18;;;;;;;32.63;34.77;100663.28;5058247;28;20029;-85
2023/08/21 07:28:16;;;;;;;20.88;6.57;;;;;;;32.79;34.56;100665.03;5058615;28;20109;-85
2023/08/21 07:30:41;;;;;;;21.23;6.10;;;;;;;32.84;34.48;100659.50;5052765;28;20041;-85
2023/08/21 07:33:07;;;;;;;16.95;5.60;;;;;;;32.95;34.58;100661.22;5052636;28;20477;-84
2023/08/21 07:35:32;;;;;;;27.00;6.57;;;;;;;33.09;34.15;100653.25;5051263;28;20032;-85
2023/08/21 07:37:58;;;;;;;24.23;6.65;;;;;;;33.20;34.20;100655.81;5052306;28;20029;-85
2023/08/21 07:40:24;;;;;;;25.08;6.20;;;;;;;33.21;33.91;100629.59;5052236;28;20044;-84
2023/08/21 07:42:49;;;;;;;16.77;6.20;;;;;;;33.39;33.46;100648.59;5033356;28;20038;-85
2023/08/21 07:45:15;;;;;;;26.00;7.10;;;;;;;33.49;33.51;100647.78;5051720;28;20142;-85
2023/08/21 07:47:40;;;;;;;18.40;6.43;;;;;;;33.61;33.56;100644.81;5051948;28;20041;-84
2023/08/21 07:50:06;;;;;;;17.05;5.93;;;;;;;33.74;33.35;100644.25;5051500;28;20112;-84
2023/08/21 07:52:33;;;;;;;21.75;5.93;;;;;;;33.89;33.05;100652.63;5051737;28;20051;-84
2023/08/21 07:55:00;;;;;;;22.02;6.72;;;;;;;33.91;32.85;100640.06;5052040;28;20029;-85
2023/08/21 07:57:27;;;;;;;10.40;5.35;;;;;;;34.07;32.76;100649.28;5033948;28;20025;-85
2023/08/21 07:59:53;;;;;;;26.65;6.28;;;;;;;34.17;33.00;100649.31;5033791;28;20094;-85
2023/08/21 08:02:18;;;;;;;17.05;5.43;;;;;;;34.22;32.62;100656.88;5050851;28;20065;-84
2023/08/21 08:04:44;;;;;;;10.90;5.78;;;;;;;34.25;32.57;100651.53;5008664;28;20141;-84
2023/08/21 08:07:09;;;;;;;26.63;6.95;;;;;;;34.35;32.38;100650.69;5009039;28;20532;-84
2023/08/21 08:09:35;;;;;;;22.20;6.05;;;;;;;34.35;31.50;100647.91;4989409;28;20042;-85
2023/08/21 08:12:01;;;;;;;25.83;6.07;;;;;;;34.40;31.96;100647.91;4990047;28;20053;-84
2023/08/21 08:14:26;;;;;;;31.52;7.20;;;;;;;34.51;32.14;100651.50;5005728;28;20064;-84
2023/08/21 08:16:52;;;;;;;19.25;6.75;;;;;;;34.59;31.84;100648.13;4989665;28;20037;-85
2023/08/21 08:19:17;;;;;;;27.67;6.43;;;;;;;34.65;31.73;100638.69;4988421;28;20042;-84
2023/08/21 08:21:43;;;;;;;12.50;5.50;;;;;;;34.80;31.58;100661.00;4989447;28;20505;-83
2023/08/21 08:24:09;;;;;;;19.77;6.35;;;;;;;34.87;31.66;100647.53;4989678;28;20128;-82
2023/08/21 08:26:34;;;;;;;13.68;5.78;;;;;;;34.95;31.00;100652.56;4989497;28;20026;-84
2023/08/21 08:28:59;;;;;;;17.92;6.68;;;;;;;34.90;31.01;100646.97;4989003;28;20050;-84
2023/08/21 08:31:27;;;;;;;18.38;7.05;;;;;;;35.03;31.10;100649.16;4989313;28;20560;-85
2023/08/21 08:33:53;;;;;;;25.15;5.95;;;;;;;34.99;30.80;100634.06;4989435;28;20038;-84
2023/08/21 08:36:19;;;;;;;20.42;5.78;;;;;;;35.12;30.71;100644.69;5003703;28;20038;-84
2023/08/21 08:38:44;;;;;;;20.05;6.68;;;;;;;35.20;31.20;100640.47;5008759;28;20025;-84
2023/08/21 08:41:30;;;;;;;28.20;6.70;;;;;;;35.37;30.97;100635.31;5039512;28;20485;-84
2023/08/21 08:43:58;;;;;;;18.45;6.15;;;;;;;35.37;30.78;100636.16;5049714;28;20029;-84
2023/08/21 08:46:24;;;;;;;27.05;7.28;;;;;;;35.38;29.93;100623.03;5050772;28;20060;-84
2023/08/21 08:48:51;;;;;;;25.67;7.60;;;;;;;35.49;30.04;100633.84;5050878;28;20033;-83
2023/08/21 08:51:17;;;;;;;20.63;6.53;;;;;;;35.46;29.87;100620.44;5049196;28;20028;-84
2023/08/21 08:53:42;;;;;;;24.15;6.57;;;;;;;35.55;29.53;100620.66;5050834;28;20022;-85
2023/08/21 08:56:08;;;;;;;35.35;6.07;;;;;;;35.64;28.35;100618.09;5032796;28;20543;-82
2023/08/21 08:58:34;;;;;;;15.55;5.65;;;;;;;35.57;28.05;100612.81;5046056;28;20037;-85
2023/08/21 09:00:59;;;;;;;20.23;6.95;;;;;;;35.65;28.36;100612.22;5050757;28;20063;-85
2023/08/21 09:03:24;;;;;;;21.08;5.38;;;;;;;35.67;27.65;100597.94;5051154;28;20028;-84
2023/08/21 09:05:50;;;;;;;20.58;5.78;;;;;;;35.69;27.02;100598.50;5051116;28;20024;-84
2023/08/21 09:08:16;;;;;;;20.02;5.05;;;;;;;35.70;27.26;100583.34;5050837;28;20028;-85
2023/08/21 09:10:43;;;;;;;18.30;5.13;;;;;;;35.84;27.75;100599.19;5050331;28;20025;-85
2023/08/21 09:13:10;;;;;;;15.35;5.72;;;;;;;35.86;27.76;100602.56;5049858;28;20389;-85
2023/08/21 09:15:36;;;;;;;18.98;5.50;;;;;;;35.86;28.08;100599.75;5049896;28;20604;-85
2023/08/21 09:18:02;;;;;;;26.20;7.50;;;;;;;35.87;28.13;100606.19;5050123;28;20027;-84
2023/08/21 09:20:34;;;;;;;11.15;5.45;;;;;;;35.95;28.57;100603.59;5049857;28;20111;-85
2023/08/21 09:22:59;;;;;;;19.45;8.65;;;;;;;35.94;28.33;100598.25;5049647;28;20056;-85
2023/08/21 09:25:26;;;;;;;12.23;6.43;;;;;;;36.04;28.14;100600.97;5050107;28;20029;-85
2023/08/21 09:27:55;;;;;;;14.73;7.60;;;;;;;36.04;27.61;100600.97;5050051;28;20083;-84
2023/08/21 09:30:20;;;;;;;14.02;5.28;;;;;;;36.07;27.24;100583.63;5049940;28;20025;-84
2023/08/21 09:33:04;;;;;;;28.15;4.63;;;;;;;36.32;25.64;100591.78;5049012;28;20040;-84
2023/08/21 09:35:32;;;;;;;17.20;5.10;;;;;;;36.38;25.60;100586.97;5050476;28;20028;-84
2023/08/21 09:37:59;;;;;;;17.10;5.50;;;;;;;36.54;25.66;100594.91;5031686;28;20029;-85
2023/08/21 09:40:24;;;;;;;24.55;5.78;;;;;;;36.70;25.55;100594.78;5049640;28;20029;-85
2023/08/21 09:42:55;;;;;;;22.73;5.50;;;;;;;36.74;25.34;100576.19;5049848;28;20017;-83
2023/08/21 09:45:24;;;;;;;25.90;5.13;;;;;;;37.04;24.95;100595.47;5049751;28;20052;-85
2023/08/21 09:47:52;;;;;;;24.95;4.57;;;;;;;37.18;24.53;100576.78;5050287;28;20083;-84
2023/08/21 09:50:18;;;;;;;25.27;6.50;;;;;;;37.28;24.95;100587.81;5056398;28;20066;-85
2023/08/21 09:52:44;;;;;;;22.88;5.80;;;;;;;37.39;25.17;100589.34;5052499;28;20024;-84
2023/08/21 09:55:10;;;;;;;15.43;4.97;;;;;;;37.46;24.99;100574.97;5050243;28;20465;-84
2023/08/21 09:57:36;;;;;;;20.45;5.20;;;;;;;37.55;24.29;100588.00;5049912;28;20025;-83
2023/08/21 10:00:15;;;;;;;19.48;4.72;;;;;;;37.53;23.89;100576.25;5049510;28;20025;-85
2023/08/21 10:02:42;;;;;;;20.73;5.70;;;;;;;37.50;24.65;100579.66;5049511;28;20158;-84
2023/08/21 10:05:09;;;;;;;17.23;5.25;;;;;;;37.52;24.94;100574.56;5049574;28;20790;-85
2023/08/21 10:07:35;;;;;;;22.73;5.65;;;;;;;37.68;24.21;100572.34;5049394;28;20056;-84
2023/08/21 10:10:00;;;;;;;25.52;11.25;;;;;;;37.65;24.43;100552.47;5049202;28;20063;-84
2023/08/21 10:12:26;;;;;;;20.10;4.78;;;;;;;37.81;24.55;100573.56;5049877;28;20028;-84
2023/08/21 10:14:52;;;;;;;17.83;4.82;;;;;;;37.74;24.17;100557.09;5049533;28;20473;-85
2023/08/21 10:17:17;;;;;;;27.25;5.40;;;;;;;37.77;24.48;100567.72;5053438;28;20485;-84
2023/08/21 10:19:51;;;;;;;23.77;5.38;;;;;;;37.86;24.13;100560.25;5055207;28;20039;-83
2023/08/21 10:22:38;;;;;;;14.45;5.32;;;;;;;37.98;23.71;100562.63;5032289;28;20033;-84
2023/08/21 10:25:04;;;;;;;15.50;4.53;;;;;;;37.74;24.26;100573.13;5049468;28;20412;-83
2023/08/21 10:27:30;;;;;;;19.02;5.40;;;;;;;37.82;24.19;100558.38;5031463;28;20029;-84
2023/08/21 10:29:59;;;;;;;20.85;4.95;;;;;;;37.90;23.90;100572.56;5049177;28;20029;-85
2023/08/21 10:32:24;;;;;;;27.00;5.03;;;;;;;37.95;24.07;100571.66;5048836;28;20033;-85
2023/08/21 10:34:53;;;;;;;22.83;4.55;;;;;;;38.00;23.64;100571.56;5048952;28;20043;-84
2023/08/21 10:37:19;;;;;;;19.30;5.78;;;;;;;38.08;23.83;100568.03;5049011;28;20025;-84
2023/08/21 10:39:57;;;;;;;22.10;5.00;;;;;;;38.12;23.79;100569.09;5049119;28;20029;-85
2023/08/21 10:42:39;;;;;;;23.05;5.88;;;;;;;38.23;23.19;100559.31;5049181;28;20029;-83
2023/08/21 10:45:12;;;;;;;18.45;6.00;;;;;;;38.22;23.14;100574.53;5053346;28;20453;-84
2023/08/21 10:47:37;;;;;;;21.85;5.28;;;;;;;38.14;23.31;100550.78;5053406;28;20028;-85
2023/08/21 10:50:07;;;;;;;14.02;4.78;;;;;;;38.18;22.93;100553.81;5053602;28;20040;-84
2023/08/21 10:52:47;;;;;;;26.02;5.45;;;;;;;38.33;22.87;100569.53;5054517;28;20033;-85
2023/08/21 10:55:14;;;;;;;18.70;5.40;;;;;;;38.32;22.66;100562.28;5036632;28;20408;-86
2023/08/21 10:57:43;;;;;;;20.00;5.75;;;;;;;38.20;22.49;100565.56;5052804;28;20192;-84
2023/08/21 11:00:26;;;;;;;15.35;5.20;;;;;;;38.10;22.63;100555.34;5053424;28;20037;-85
2023/08/21 11:02:52;;;;;;;16.92;4.68;;;;;;;38.12;22.74;100569.09;5052917;28;20512;-86
2023/08/21 11:05:17;;;;;;;13.10;4.38;;;;;;;37.99;23.78;100569.88;5053050;28;20116;-86
2023/08/21 11:07:46;;;;;;;12.00;5.30;;;;;;;37.87;24.70;100553.50;5052687;28;20481;-85
2023/08/21 11:10:22;;;;;;;22.50;4.90;;;;;;;38.03;24.98;100560.56;5053548;28;20025;-84
2023/08/21 11:12:52;;;;;;;16.58;5.10;;;;;;;38.07;25.65;100560.78;5053611;28;20033;-84